Metar z pełnej godziny Komunikat METAR ze strony awiacja.imgw.pl Metar G00 EPSY METAR EPSY 231300Z 20011KT CAVOK 18/04 Q1011=